Time;durP1;ratioP1;P1;durP2;ratioP2;P2;SDS_P1;SDS_P2;PMS_P1;PMS_P2;Temp;Humidity;BMP_temperature;BMP_pressure;BME280_temperature;BME280_humidity;BME280_pressure;Samples;Min_cycle;Max_cycle;Signal;HPM_P1;HPM_P2
2022/04/25 00:00:32;;;;;;;18.57;6.37;;;;;;;16.57;69.88;98779.00;5092846;28;20200;-60
2022/04/25 00:02:59;;;;;;;16.23;6.20;;;;;;;16.63;69.93;98784.94;5093037;28;20198;-60
2022/04/25 00:05:26;;;;;;;15.95;6.75;;;;;;;16.69;70.24;98779.66;5091808;28;21009;-60
2022/04/25 00:07:53;;;;;;;23.90;7.33;;;;;;;16.79;69.37;98788.94;5092726;28;20198;-60
2022/04/25 00:10:19;;;;;;;18.00;6.83;;;;;;;16.80;68.96;98790.66;5092931;28;20191;-60
2022/04/25 00:12:46;;;;;;;22.27;7.60;;;;;;;16.81;68.72;98791.53;5092464;28;20218;-59
2022/04/25 00:15:15;;;;;;;12.97;5.87;;;;;;;16.74;69.07;98790.78;5092472;28;20230;-60
2022/04/25 00:17:42;;;;;;;13.83;7.27;;;;;;;16.68;68.92;98788.31;5092701;28;20653;-60
2022/04/25 00:20:10;;;;;;;17.07;6.73;;;;;;;16.61;68.90;98786.72;5089934;28;20598;-59
2022/04/25 00:22:37;;;;;;;14.40;5.93;;;;;;;16.65;68.83;98785.75;5092279;28;20234;-59
2022/04/25 00:25:05;;;;;;;17.07;6.77;;;;;;;16.64;69.04;98791.84;5092403;28;20193;-59
2022/04/25 00:27:31;;;;;;;18.10;7.50;;;;;;;16.61;69.33;98794.50;5092373;28;20202;-59
2022/04/25 00:29:58;;;;;;;14.93;6.30;;;;;;;16.60;69.29;98791.91;5092250;28;20186;-59
2022/04/25 00:32:27;;;;;;;17.33;6.70;;;;;;;16.50;69.54;98793.81;5088615;28;20222;-59
2022/04/25 00:34:54;;;;;;;24.37;7.67;;;;;;;16.59;69.63;98798.00;5072102;28;20194;-60
2022/04/25 00:37:21;;;;;;;21.03;6.83;;;;;;;16.59;69.36;98795.41;5072399;28;20283;-59
2022/04/25 00:39:47;;;;;;;16.27;6.40;;;;;;;16.61;69.46;98794.50;5072052;28;20688;-59
2022/04/25 00:42:14;;;;;;;14.00;6.20;;;;;;;16.58;69.77;98793.69;5072179;28;20195;-59
2022/04/25 00:44:42;;;;;;;14.40;5.77;;;;;;;16.59;69.67;98791.06;5071855;28;20288;-59
2022/04/25 00:47:10;;;;;;;15.07;5.53;;;;;;;16.56;69.47;98793.75;5071961;28;20233;-59
2022/04/25 00:49:38;;;;;;;19.37;5.53;;;;;;;16.58;69.59;98788.50;5075840;28;20300;-59
2022/04/25 00:52:06;;;;;;;15.13;6.77;;;;;;;16.56;69.66;98783.38;5091863;28;20448;-60
2022/04/25 00:54:33;;;;;;;23.10;6.60;;;;;;;16.61;69.50;98786.72;5092049;28;20441;-60
2022/04/25 00:57:01;;;;;;;15.13;6.40;;;;;;;16.57;69.60;98797.16;5092008;28;20241;-60
2022/04/25 00:59:29;;;;;;;15.03;6.17;;;;;;;16.51;69.87;98793.78;5089009;28;20278;-60
2022/04/25 01:01:56;;;;;;;19.93;6.77;;;;;;;16.52;69.95;98802.41;5071472;28;20198;-60
2022/04/25 01:04:22;;;;;;;20.57;7.70;;;;;;;16.48;70.28;98798.19;5071571;28;20201;-56
2022/04/25 01:06:51;;;;;;;17.30;7.00;;;;;;;16.33;70.68;98809.69;5071549;28;20282;-56
2022/04/25 01:09:18;;;;;;;19.90;6.00;;;;;;;16.37;70.43;98802.72;5071385;28;20194;-56
2022/04/25 01:11:45;;;;;;;21.57;7.60;;;;;;;16.33;70.65;98796.72;5070356;28;20506;-56
2022/04/25 01:14:17;;;;;;;15.53;5.77;;;;;;;16.34;70.24;98801.00;5071729;28;20287;-56
2022/04/25 01:16:45;;;;;;;10.87;5.40;;;;;;;16.25;70.03;98796.00;5071301;28;20428;-56
2022/04/25 01:19:12;;;;;;;12.70;5.63;;;;;;;16.20;70.07;98797.81;5071147;28;20188;-56
2022/04/25 01:21:43;;;;;;;15.30;5.73;;;;;;;16.21;70.15;98793.47;5088779;28;20187;-56
2022/04/25 01:29:40;;;;;;;13.07;5.77;;;;;;;16.19;70.27;98793.50;5071792;28;20213;-56
2022/04/25 01:32:08;;;;;;;10.93;6.40;;;;;;;16.19;70.44;98790.06;5091022;28;20228;-56
2022/04/25 01:34:37;;;;;;;13.20;6.47;;;;;;;16.14;70.72;98791.88;5091402;28;20195;-55
2022/04/25 01:37:06;;;;;;;19.47;7.17;;;;;;;16.08;71.01;98795.44;5091270;28;20623;-55
2022/04/25 01:39:35;;;;;;;16.93;7.30;;;;;;;16.05;71.34;98792.03;5091050;28;20191;-56
2022/04/25 01:42:03;;;;;;;14.93;6.43;;;;;;;16.04;71.58;98787.75;5091070;28;20185;-56
2022/04/25 01:44:30;;;;;;;19.20;7.40;;;;;;;15.98;71.95;98793.03;5090882;28;20191;-56
2022/04/25 01:46:57;;;;;;;12.90;6.23;;;;;;;16.02;71.87;98800.72;5090722;28;20187;-56
2022/04/25 01:49:24;;;;;;;14.60;7.30;;;;;;;15.99;71.95;98797.34;5090840;28;20238;-56
2022/04/25 01:51:51;;;;;;;17.30;6.87;;;;;;;15.97;72.30;98786.13;5090611;28;20227;-56
2022/04/25 01:54:24;;;;;;;15.23;7.53;;;;;;;15.89;72.53;98787.13;5090691;28;20187;-56
2022/04/25 01:56:53;;;;;;;12.57;6.63;;;;;;;15.83;72.85;98786.34;5090987;28;20550;-56
2022/04/25 01:59:19;;;;;;;15.27;6.77;;;;;;;15.84;72.56;98788.94;5090710;28;20203;-56
2022/04/25 02:01:47;;;;;;;15.53;6.97;;;;;;;15.84;72.52;98794.13;5090789;28;20663;-55
2022/04/25 02:04:13;;;;;;;18.87;7.03;;;;;;;15.78;72.74;98786.44;5090866;28;20274;-55
2022/04/25 02:06:40;;;;;;;13.43;7.33;;;;;;;15.77;72.95;98782.13;5090524;28;20660;-56
2022/04/25 02:09:08;;;;;;;16.03;6.57;;;;;;;15.78;73.22;98785.56;5090556;28;20191;-56
2022/04/25 02:11:35;;;;;;;23.63;7.90;;;;;;;15.78;73.51;98788.16;5090444;28;20218;-55
2022/04/25 02:14:04;;;;;;;15.00;7.53;;;;;;;15.80;73.54;98789.84;5090591;28;20676;-56
2022/04/25 02:16:31;;;;;;;14.57;6.83;;;;;;;15.74;73.67;98777.00;5090331;28;20758;-55
2022/04/25 02:18:58;;;;;;;13.67;7.07;;;;;;;15.71;74.23;98786.56;5090437;28;20191;-56
2022/04/25 02:21:25;;;;;;;15.77;7.03;;;;;;;15.67;74.44;98785.75;5090722;28;20261;-56
2022/04/25 02:23:52;;;;;;;19.97;7.50;;;;;;;15.65;74.73;98782.34;5089682;28;20199;-56
2022/04/25 02:26:19;;;;;;;18.10;7.87;;;;;;;15.61;75.42;98790.16;5090679;28;20209;-55
2022/04/25 02:28:46;;;;;;;21.83;7.83;;;;;;;15.60;75.32;98798.81;5090488;28;20285;-56
2022/04/25 02:31:14;;;;;;;20.80;8.13;;;;;;;15.38;75.49;98768.00;5090591;28;20366;-60
2022/04/25 02:33:42;;;;;;;15.03;8.33;;;;;;;15.47;75.75;98792.94;5090477;28;20254;-61
2022/04/25 02:36:09;;;;;;;16.00;8.73;;;;;;;15.32;76.12;98770.72;5090652;28;20199;-59
2022/04/25 02:38:38;;;;;;;23.13;8.80;;;;;;;15.40;76.24;98782.69;5090187;28;20190;-60
2022/04/25 02:41:06;;;;;;;21.03;8.53;;;;;;;15.43;76.35;98785.22;5090352;28;20205;-63
2022/04/25 02:43:34;;;;;;;17.10;8.50;;;;;;;15.47;76.31;98790.34;5090332;28;20665;-60
2022/04/25 02:46:02;;;;;;;19.20;9.27;;;;;;;15.50;76.22;98787.72;5090191;28;20191;-59
2022/04/25 02:48:31;;;;;;;20.70;9.53;;;;;;;15.50;76.27;98789.44;5090504;28;20557;-60
2022/04/25 02:50:58;;;;;;;17.00;9.30;;;;;;;15.50;76.34;98786.88;5090129;28;20538;-60
2022/04/25 02:53:25;;;;;;;17.20;8.80;;;;;;;15.52;76.57;98783.38;5089962;28;20260;-59
2022/04/25 02:55:53;;;;;;;20.63;9.10;;;;;;;15.47;76.63;98782.59;5090184;28;20244;-61
2022/04/25 02:58:20;;;;;;;21.97;9.57;;;;;;;15.51;76.56;98786.88;5089929;28;20286;-60
2022/04/25 03:00:47;;;;;;;25.13;10.03;;;;;;;15.56;76.38;98789.38;5090034;28;20193;-60
2022/04/25 03:03:14;;;;;;;21.00;10.30;;;;;;;15.50;77.02;98785.13;5089406;28;20443;-59
2022/04/25 03:05:44;;;;;;;25.57;10.40;;;;;;;15.51;77.03;98793.78;5090044;28;20194;-60
2022/04/25 03:08:12;;;;;;;16.60;9.73;;;;;;;15.51;76.78;98796.34;5090018;28;20392;-59
2022/04/25 03:10:38;;;;;;;17.77;8.80;;;;;;;15.46;77.06;98790.38;5090059;28;20190;-60
2022/04/25 03:13:07;;;;;;;19.00;9.87;;;;;;;15.38;77.62;98791.31;5090071;28;20577;-59
2022/04/25 03:15:34;;;;;;;21.07;9.87;;;;;;;15.32;77.84;98785.38;5089952;28;20230;-59
2022/04/25 03:18:02;;;;;;;26.03;9.87;;;;;;;15.31;78.14;98786.25;5090247;28;20217;-59
2022/04/25 03:20:29;;;;;;;23.97;10.27;;;;;;;15.30;78.35;98792.28;5089774;28;20285;-59
2022/04/25 03:22:57;;;;;;;24.53;11.43;;;;;;;15.33;78.48;98792.25;5089070;28;20585;-59
2022/04/25 03:25:24;;;;;;;26.90;10.90;;;;;;;15.38;77.99;98793.06;5089739;28;20191;-59
2022/04/25 03:27:51;;;;;;;29.03;9.70;;;;;;;15.41;77.56;98792.16;5089655;28;20190;-59
2022/04/25 03:30:19;;;;;;;25.20;9.83;;;;;;;15.40;77.29;98791.31;5090008;28;20195;-59
2022/04/25 03:32:46;;;;;;;20.70;9.57;;;;;;;15.41;77.22;98797.34;5089811;28;20237;-59
2022/04/25 03:35:14;;;;;;;26.63;11.17;;;;;;;15.45;77.73;98788.63;5091213;28;20202;-60
2022/04/25 03:37:41;;;;;;;26.17;11.33;;;;;;;15.43;77.37;98793.00;5093446;28;20202;-59
2022/04/25 03:40:10;;;;;;;18.13;9.87;;;;;;;15.34;76.83;98791.38;5093318;28;20198;-59
2022/04/25 03:42:38;;;;;;;22.20;10.47;;;;;;;15.33;77.14;98789.66;5093767;28;20179;-59
2022/04/25 03:45:06;;;;;;;16.40;10.03;;;;;;;15.22;77.65;98799.31;5093716;28;20201;-59
2022/04/25 03:47:33;;;;;;;30.53;11.03;;;;;;;15.19;77.74;98791.63;5093655;28;20189;-60
2022/04/25 03:50:00;;;;;;;26.10;10.73;;;;;;;15.18;77.83;98790.75;5093592;28;20246;-59
2022/04/25 03:52:27;;;;;;;20.70;10.60;;;;;;;15.19;77.59;98789.84;5093131;28;20221;-59
2022/04/25 03:57:40;;;;;;;25.53;10.80;;;;;;;15.22;77.59;98792.41;5093238;28;20190;-59
2022/04/25 04:00:08;;;;;;;21.73;11.03;;;;;;;15.22;77.47;98787.22;5093027;28;20287;-59
2022/04/25 04:02:35;;;;;;;16.67;9.27;;;;;;;15.20;77.28;98786.41;5093245;28;20204;-59
2022/04/25 04:05:02;;;;;;;20.10;11.40;;;;;;;15.25;77.23;98794.94;5093250;28;20316;-60
2022/04/25 04:07:29;;;;;;;22.93;11.33;;;;;;;15.31;76.97;98797.47;5093141;28;20199;-56
2022/04/25 04:09:56;;;;;;;25.37;11.07;;;;;;;15.24;76.73;98797.56;5093529;28;20190;-55
2022/04/25 04:12:26;;;;;;;24.07;11.47;;;;;;;15.24;76.95;98800.16;5093017;28;20342;-55
2022/04/25 04:14:54;;;;;;;23.07;11.70;;;;;;;15.28;77.12;98791.47;5092659;28;20227;-56
2022/04/25 04:17:21;;;;;;;25.80;12.47;;;;;;;15.27;77.04;98784.59;5092704;28;20187;-56
2022/04/25 04:19:48;;;;;;;25.70;12.07;;;;;;;15.31;76.65;98776.75;5092439;28;20198;-55
2022/04/25 04:22:16;;;;;;;24.43;12.03;;;;;;;15.38;76.71;98775.78;5092464;28;20222;-55
2022/04/25 04:24:42;;;;;;;19.93;11.73;;;;;;;15.44;76.42;98772.25;5092598;28;20240;-59
2022/04/25 04:27:09;;;;;;;19.23;10.50;;;;;;;15.48;75.89;98765.34;5092514;28;20204;-59
2022/04/25 04:29:36;;;;;;;22.85;12.50;;;;;;;15.41;75.80;98741.22;5092433;28;20926;-60
2022/04/25 04:32:06;;;;;;;28.43;12.43;;;;;;;15.44;76.16;98756.72;5092606;28;20191;-60
2022/04/25 04:34:34;;;;;;;19.77;11.17;;;;;;;15.50;76.22;98735.09;5092438;28;20191;-59
2022/04/25 04:37:01;;;;;;;23.93;11.87;;;;;;;15.55;76.26;98741.03;5092483;28;20191;-60
2022/04/25 04:39:28;;;;;;;28.00;11.03;;;;;;;15.63;76.40;98741.81;5092400;28;20208;-60
2022/04/25 04:41:55;;;;;;;17.63;11.33;;;;;;;15.58;76.24;98715.97;5092300;28;20191;-59
2022/04/25 04:44:22;;;;;;;27.17;11.53;;;;;;;15.79;75.22;98743.25;5092364;28;20204;-59
2022/04/25 04:46:49;;;;;;;25.30;12.00;;;;;;;15.96;74.82;98750.75;5091228;28;20282;-60
2022/04/25 04:49:18;;;;;;;24.60;10.83;;;;;;;16.04;73.49;98739.34;5092195;28;20191;-60
2022/04/25 04:51:45;;;;;;;25.60;11.47;;;;;;;16.22;73.00;98749.41;5092118;28;20191;-60
2022/04/25 04:54:12;;;;;;;18.50;9.73;;;;;;;16.35;71.99;98750.88;5092201;28;20218;-60
2022/04/25 04:56:38;;;;;;;22.60;10.33;;;;;;;16.46;71.33;98758.44;5091855;28;20207;-60
2022/04/25 04:59:06;;;;;;;17.63;11.20;;;;;;;16.52;70.92;98751.41;5091793;28;20231;-61
2022/04/25 05:01:33;;;;;;;25.57;11.63;;;;;;;16.65;70.82;98741.66;5092091;28;20189;-60
2022/04/25 05:04:00;;;;;;;25.77;12.10;;;;;;;16.66;70.23;98737.34;5090492;28;20197;-59
2022/04/25 05:06:29;;;;;;;22.60;12.53;;;;;;;16.45;70.57;98712.69;5091040;28;20198;-60
2022/04/25 05:08:56;;;;;;;17.73;11.70;;;;;;;16.59;70.75;98730.59;5092017;28;20182;-59
2022/04/25 05:11:23;;;;;;;19.33;11.90;;;;;;;16.77;70.76;98754.41;5091674;28;20278;-59
2022/04/25 05:13:51;;;;;;;21.07;11.10;;;;;;;16.74;70.73;98770.03;5092076;28;20691;-60
2022/04/25 05:16:17;;;;;;;17.70;12.10;;;;;;;16.81;70.62;98778.56;5091487;28;20578;-60
2022/04/25 05:18:44;;;;;;;18.30;10.77;;;;;;;16.83;70.30;98785.41;5091820;28;20300;-60
2022/04/25 05:21:13;;;;;;;23.17;11.73;;;;;;;16.99;69.86;98788.53;5091794;28;20198;-59
2022/04/25 05:23:42;;;;;;;17.67;11.63;;;;;;;16.96;69.80;98791.19;5091137;28;20211;-59
2022/04/25 05:26:09;;;;;;;21.67;11.57;;;;;;;17.06;69.36;98777.13;5091460;28;20207;-60
2022/04/25 05:28:36;;;;;;;22.63;10.97;;;;;;;17.19;68.83;98791.59;5091516;28;20290;-59
2022/04/25 05:31:03;;;;;;;23.83;12.37;;;;;;;17.30;68.36;98806.91;5091443;28;20550;-59
2022/04/25 05:33:30;;;;;;;21.53;12.13;;;;;;;17.41;68.20;98826.59;5091217;28;20219;-59
2022/04/25 05:35:57;;;;;;;19.80;10.07;;;;;;;17.47;67.14;98828.19;5089401;28;20640;-60
2022/04/25 05:38:24;;;;;;;20.38;11.70;;;;;;;17.53;67.14;98839.31;5090631;28;20506;-59
2022/04/25 05:40:53;;;;;;;18.67;11.60;;;;;;;17.52;67.06;98829.81;5090771;28;20214;-60
2022/04/25 05:43:20;;;;;;;18.80;11.27;;;;;;;17.73;66.81;98851.00;5090596;28;20282;-60
2022/04/25 05:45:48;;;;;;;17.93;10.60;;;;;;;17.63;66.67;98860.75;5090998;28;20265;-59
2022/04/25 05:53:57;;;;;;;18.70;10.13;;;;;;;17.57;66.89;98856.56;5045995;28;20227;-59
2022/04/25 05:56:26;;;;;;;20.00;9.90;;;;;;;17.60;66.09;98863.44;5070972;28;20189;-59
2022/04/25 05:58:52;;;;;;;24.27;9.97;;;;;;;17.63;66.15;98856.41;5090566;28;20204;-59
2022/04/25 06:01:19;;;;;;;24.93;10.60;;;;;;;17.73;66.09;98854.47;5091049;28;20620;-60
2022/04/25 06:03:46;;;;;;;20.70;10.83;;;;;;;17.67;66.26;98855.44;5090333;28;20186;-59
2022/04/25 06:06:13;;;;;;;17.47;10.33;;;;;;;17.61;66.82;98858.19;5090743;28;20191;-59
2022/04/25 06:08:40;;;;;;;17.23;10.27;;;;;;;17.67;67.09;98849.41;5090134;28;20235;-59
2022/04/25 06:11:08;;;;;;;19.73;10.67;;;;;;;17.76;67.11;98838.81;5090939;28;20632;-59
2022/04/25 06:13:36;;;;;;;18.37;10.77;;;;;;;17.84;66.92;98836.88;5091026;28;20222;-60
2022/04/25 06:16:03;;;;;;;17.47;10.93;;;;;;;17.92;66.70;98844.50;5090553;28;20322;-59
2022/04/25 06:18:30;;;;;;;20.77;10.47;;;;;;;17.94;67.01;98850.50;5090639;28;20214;-59
2022/04/25 06:20:57;;;;;;;22.50;10.17;;;;;;;18.02;66.68;98841.63;5090430;28;20278;-59
2022/04/25 06:23:23;;;;;;;17.73;10.70;;;;;;;18.15;66.51;98848.25;5090292;28;20189;-60
2022/04/25 06:25:50;;;;;;;22.33;10.73;;;;;;;18.20;65.94;98843.81;5088449;28;20194;-62
2022/04/25 06:28:18;;;;;;;18.57;10.17;;;;;;;18.24;64.93;98835.00;5090558;28;20199;-61
2022/04/25 06:30:46;;;;;;;26.37;10.70;;;;;;;18.37;65.00;98832.97;5110509;28;20197;-62
2022/04/25 06:33:13;;;;;;;19.83;9.93;;;;;;;18.46;64.48;98824.09;5110385;28;20228;-59
2022/04/25 06:35:40;;;;;;;22.33;11.13;;;;;;;18.54;64.25;98812.59;5110764;28;20192;-59
2022/04/25 06:38:06;;;;;;;21.00;9.20;;;;;;;18.57;64.20;98820.31;5095413;28;20199;-59
2022/04/25 06:40:33;;;;;;;17.40;9.13;;;;;;;18.65;62.32;98827.94;5090145;28;20592;-59
2022/04/25 06:43:00;;;;;;;25.17;10.07;;;;;;;18.71;62.30;98830.34;5090239;28;20196;-59
2022/04/25 06:45:28;;;;;;;18.20;9.85;;;;;;;18.72;62.50;98832.94;5088122;28;20497;-60
2022/04/25 06:47:56;;;;;;;21.93;9.73;;;;;;;18.82;62.21;98820.50;5083813;28;20277;-59
2022/04/25 06:50:23;;;;;;;16.30;8.30;;;;;;;18.82;61.91;98820.50;5088990;28;20199;-61
2022/04/25 06:52:50;;;;;;;17.43;8.53;;;;;;;18.87;61.95;98828.19;5089873;28;20195;-60
2022/04/25 06:55:18;;;;;;;20.00;8.93;;;;;;;18.92;60.96;98831.53;5087899;28;20194;-59
2022/04/25 06:57:44;;;;;;;21.13;8.40;;;;;;;18.94;61.07;98832.31;5089844;28;20277;-59
2022/04/25 07:00:12;;;;;;;20.07;8.57;;;;;;;18.91;61.04;98835.00;5089771;28;20187;-60
2022/04/25 07:02:39;;;;;;;15.97;8.40;;;;;;;18.98;60.69;98831.34;5087991;28;20728;-60
2022/04/25 07:05:08;;;;;;;19.83;9.40;;;;;;;19.06;60.54;98832.84;5089687;28;20198;-61
2022/04/25 07:07:35;;;;;;;13.80;7.70;;;;;;;19.01;60.11;98826.91;5088953;28;20668;-61
2022/04/25 07:10:02;;;;;;;14.77;8.30;;;;;;;19.14;59.60;98817.84;5091007;28;20553;-60
2022/04/25 07:12:29;;;;;;;21.37;7.17;;;;;;;19.21;58.48;98819.38;5093670;28;20202;-60
2022/04/25 07:14:56;;;;;;;21.23;8.20;;;;;;;19.37;58.57;98822.38;5093489;28;20313;-60
2022/04/25 07:17:23;;;;;;;19.63;7.50;;;;;;;19.54;57.97;98827.09;5093176;28;20210;-60
2022/04/25 07:19:50;;;;;;;20.13;8.07;;;;;;;19.63;57.84;98822.47;5093217;28;20692;-60
2022/04/25 07:30:34;;;;;;;17.43;8.03;;;;;;;19.82;56.48;98827.97;5092018;28;20256;-60
2022/04/25 07:33:01;;;;;;;15.95;7.97;;;;;;;19.84;57.40;98819.19;5091803;28;20415;-62
2022/04/25 07:35:28;;;;;;;16.07;7.97;;;;;;;19.94;57.06;98817.16;5091235;28;20201;-60
2022/04/25 07:37:57;;;;;;;17.73;8.17;;;;;;;19.96;56.87;98821.41;5091835;28;20183;-61
2022/04/25 07:40:24;;;;;;;14.23;7.60;;;;;;;20.10;56.69;98817.50;5092557;28;20217;-60
2022/04/25 07:42:51;;;;;;;18.13;7.63;;;;;;;20.08;56.92;98812.31;5092968;28;20223;-60
2022/04/25 07:45:18;;;;;;;23.33;7.90;;;;;;;20.21;56.58;98799.75;5090969;28;20187;-60
2022/04/25 07:47:45;;;;;;;14.40;7.47;;;;;;;20.24;56.80;98791.81;5092400;28;20638;-60
2022/04/25 07:50:13;;;;;;;19.10;8.20;;;;;;;20.35;56.68;98795.81;5090218;28;20176;-60
2022/04/25 07:52:40;;;;;;;19.20;8.40;;;;;;;20.38;55.58;98792.25;5092405;28;20443;-60
2022/04/25 07:55:09;;;;;;;19.93;7.57;;;;;;;20.49;55.91;98788.31;5092189;28;20566;-60
2022/04/25 07:57:36;;;;;;;13.87;6.80;;;;;;;20.64;55.32;98793.91;5092606;28;20234;-61
2022/04/25 08:00:05;;;;;;;14.87;7.70;;;;;;;20.76;54.94;98796.09;5091697;28;20315;-61
2022/04/25 08:02:32;;;;;;;14.30;7.30;;;;;;;20.60;54.38;98785.38;5091979;28;20242;-60
2022/04/25 08:04:59;;;;;;;16.33;8.37;;;;;;;20.79;54.64;98793.38;5092236;28;20624;-61
2022/04/25 08:07:26;;;;;;;17.77;8.03;;;;;;;20.95;54.16;98784.06;5092443;28;20278;-60
2022/04/25 08:09:53;;;;;;;13.37;6.53;;;;;;;21.05;53.66;98782.81;5092441;28;20740;-60
2022/04/25 08:18:04;;;;;;;12.80;7.00;;;;;;;21.30;53.04;98774.94;5094258;28;20198;-60
2022/04/25 08:20:34;;;;;;;13.17;6.73;;;;;;;21.31;52.88;98772.28;5092814;28;20656;-61
2022/04/25 08:23:02;;;;;;;15.77;7.03;;;;;;;21.44;52.60;98765.66;5093677;28;20573;-60
2022/04/25 08:25:30;;;;;;;17.13;6.90;;;;;;;21.54;52.20;98764.38;5089723;28;20744;-60
2022/04/25 08:27:59;;;;;;;13.60;7.10;;;;;;;21.23;52.75;98726.44;5091404;28;20664;-60
2022/04/25 08:30:26;;;;;;;16.57;7.03;;;;;;;21.33;53.21;98744.31;5095339;28;20182;-61
2022/04/25 08:32:55;;;;;;;14.97;6.57;;;;;;;21.40;52.86;98744.94;5095321;28;20195;-62
2022/04/25 08:35:22;;;;;;;12.93;6.70;;;;;;;21.57;52.86;98738.13;5091171;28;20238;-61
2022/04/25 08:37:49;;;;;;;10.53;6.60;;;;;;;21.72;51.50;98739.28;5092962;28;20231;-61
2022/04/25 08:40:16;;;;;;;17.83;7.13;;;;;;;21.87;51.76;98741.28;5090785;28;20535;-61
2022/04/25 08:42:44;;;;;;;17.40;6.87;;;;;;;21.90;51.86;98733.31;5091145;28;20277;-61
2022/04/25 08:45:13;;;;;;;15.53;7.10;;;;;;;22.15;51.68;98733.13;5091311;28;20202;-61
2022/04/25 08:47:47;;;;;;;19.87;7.47;;;;;;;22.38;50.90;98729.53;5090911;28;20807;-60
2022/04/25 08:50:17;;;;;;;19.57;8.47;;;;;;;22.50;50.66;98732.44;5091079;28;20191;-61
2022/04/25 08:52:45;;;;;;;18.67;8.03;;;;;;;22.62;50.12;98728.44;5091031;28;20202;-61
2022/04/25 08:55:13;;;;;;;15.60;7.00;;;;;;;22.50;49.20;98732.44;5097316;28;20779;-61
2022/04/25 08:57:42;;;;;;;14.53;6.77;;;;;;;22.41;49.77;98732.88;5098111;28;20203;-61
2022/04/25 09:00:10;;;;;;;18.73;7.10;;;;;;;21.95;50.88;98733.97;5088807;28;20190;-61
2022/04/25 09:02:39;;;;;;;20.80;6.40;;;;;;;22.22;50.98;98721.50;5090832;28;20191;-62
2022/04/25 09:05:07;;;;;;;15.07;7.03;;;;;;;22.16;50.42;98722.59;5090959;28;20661;-61
2022/04/25 09:07:35;;;;;;;12.17;7.20;;;;;;;21.97;51.25;98719.06;5090972;28;20179;-60
2022/04/25 09:10:02;;;;;;;16.20;6.83;;;;;;;21.97;52.23;98715.59;5091353;28;20218;-60
2022/04/25 09:12:29;;;;;;;14.40;6.70;;;;;;;22.16;51.42;98713.91;5090769;28;20240;-59
2022/04/25 09:14:56;;;;;;;21.67;7.27;;;;;;;22.22;51.10;98713.63;5090839;28;20219;-60
2022/04/25 09:17:24;;;;;;;16.47;7.03;;;;;;;22.35;51.14;98701.72;5091000;28;20310;-60
2022/04/25 09:19:52;;;;;;;17.60;7.20;;;;;;;22.43;50.45;98694.38;5088095;28;20700;-60
2022/04/25 09:22:31;;;;;;;16.07;6.57;;;;;;;22.66;49.83;98701.25;5091185;28;20183;-60
2022/04/25 09:25:05;;;;;;;18.87;6.57;;;;;;;22.72;49.57;98664.28;5089246;28;20232;-61
2022/04/25 09:27:33;;;;;;;18.40;7.53;;;;;;;23.09;48.89;98695.72;5088608;28;20175;-60
2022/04/25 09:30:14;;;;;;;16.50;7.30;;;;;;;23.14;48.58;98670.13;5089154;28;20630;-61
2022/04/25 09:32:41;;;;;;;17.07;6.53;;;;;;;23.37;47.66;98687.38;5088330;28;20195;-60
2022/04/25 09:35:33;;;;;;;18.90;7.10;;;;;;;23.27;46.59;98665.13;5086105;28;20211;-61
2022/04/25 09:38:03;;;;;;;19.17;7.80;;;;;;;23.41;47.37;98675.84;5089885;28;20653;-61
2022/04/25 09:40:32;;;;;;;18.87;8.33;;;;;;;23.52;47.37;98672.69;5090536;28;20323;-60
2022/04/25 09:43:08;;;;;;;14.63;7.43;;;;;;;23.61;46.55;98680.13;5090076;28;20187;-61
2022/04/25 09:45:37;;;;;;;16.83;9.20;;;;;;;23.76;46.77;98679.38;5090598;28;20191;-61
2022/04/25 09:48:09;;;;;;;15.90;6.67;;;;;;;23.71;45.05;98661.22;5087568;28;20561;-61
2022/04/25 09:50:39;;;;;;;10.90;6.17;;;;;;;23.57;45.01;98649.75;5088221;28;20445;-60
2022/04/25 09:53:08;;;;;;;18.67;6.53;;;;;;;23.80;45.67;98680.91;5090020;28;20191;-61
2022/04/25 09:55:37;;;;;;;15.83;7.07;;;;;;;23.75;45.17;98670.66;5097267;28;20198;-61
2022/04/25 09:58:22;;;;;;;14.37;7.77;;;;;;;23.88;45.58;98663.00;5090932;28;20220;-61
2022/04/25 10:00:52;;;;;;;18.77;8.10;;;;;;;23.99;45.95;98664.16;5086961;28;20625;-60
2022/04/25 10:03:34;;;;;;;19.97;6.77;;;;;;;23.85;45.75;98661.38;5087773;28;20187;-60
2022/04/25 10:06:05;;;;;;;23.60;8.60;;;;;;;23.98;45.55;98661.63;5088036;28;20190;-60
2022/04/25 10:08:35;;;;;;;17.27;7.23;;;;;;;24.03;45.00;98649.94;5090353;28;20202;-60
2022/04/25 10:11:05;;;;;;;15.43;6.70;;;;;;;24.22;45.27;98646.41;5090056;28;20210;-60
2022/04/25 10:13:33;;;;;;;20.93;7.07;;;;;;;24.35;44.70;98645.66;5089992;28;20199;-61
2022/04/25 10:16:00;;;;;;;13.33;7.00;;;;;;;24.32;44.38;98643.19;5089388;28;20233;-60
2022/04/25 10:18:30;;;;;;;14.60;6.63;;;;;;;24.32;44.84;98639.72;5089881;28;20266;-60
2022/04/25 10:20:57;;;;;;;21.50;7.30;;;;;;;24.24;44.58;98642.75;5097770;28;20290;-61
2022/04/25 10:23:26;;;;;;;19.07;7.40;;;;;;;24.30;44.93;98641.59;5090080;28;20201;-60
2022/04/25 10:25:55;;;;;;;12.40;9.80;;;;;;;24.42;43.32;98647.03;5088233;28;20202;-61
2022/04/25 10:28:29;;;;;;;15.07;7.50;;;;;;;24.43;43.19;98648.72;5069041;28;20198;-61
2022/04/25 10:31:02;;;;;;;15.10;6.97;;;;;;;24.49;43.95;98651.03;5069392;28;20191;-60
2022/04/25 10:33:49;;;;;;;21.40;12.20;;;;;;;24.67;43.90;98639.53;5080211;28;20198;-61
2022/04/25 10:36:42;;;;;;;17.10;6.43;;;;;;;24.56;44.13;98633.16;5087696;28;20205;-61
2022/04/25 10:39:15;;;;;;;12.50;6.67;;;;;;;24.71;43.97;98637.59;5087162;28;20277;-60
2022/04/25 10:44:50;;;;;;;14.10;6.90;;;;;;;24.97;42.27;98626.50;5089168;28;20193;-60
2022/04/25 10:47:18;;;;;;;16.37;7.13;;;;;;;25.04;42.54;98625.25;5089833;28;20196;-60
2022/04/25 10:49:46;;;;;;;21.33;7.50;;;;;;;25.23;42.19;98632.94;5090125;28;20194;-60
2022/04/25 10:52:55;;;;;;;19.87;7.87;;;;;;;25.40;41.95;98622.31;5089874;28;20186;-60
2022/04/25 10:55:34;;;;;;;13.73;6.50;;;;;;;25.42;41.44;98625.69;5026764;28;20213;-60
2022/04/25 10:58:25;;;;;;;19.00;6.67;;;;;;;25.46;40.79;98621.09;5085231;28;20279;-61
2022/04/25 11:00:53;;;;;;;21.90;6.50;;;;;;;25.56;40.48;98620.50;5074522;28;20222;-61
2022/04/25 11:03:29;;;;;;;16.17;6.57;;;;;;;25.65;41.75;98619.13;5089193;28;20191;-60
2022/04/25 11:05:57;;;;;;;22.40;8.13;;;;;;;25.72;41.82;98613.41;5088531;28;20274;-60
2022/04/25 11:08:29;;;;;;;17.53;6.37;;;;;;;25.54;41.53;98613.66;5089040;28;20671;-60
2022/04/25 11:11:03;;;;;;;14.23;7.37;;;;;;;25.55;41.84;98599.53;5089556;28;20198;-61
2022/04/25 11:13:32;;;;;;;13.70;7.07;;;;;;;25.79;41.18;98619.16;5089315;28;20471;-60
2022/04/25 11:16:01;;;;;;;18.53;7.13;;;;;;;25.45;40.85;98611.50;5089261;28;20727;-60
2022/04/25 11:18:33;;;;;;;14.20;6.87;;;;;;;25.50;41.41;98610.34;5089206;28;20194;-60
2022/04/25 11:21:04;;;;;;;20.17;6.97;;;;;;;25.43;42.79;98616.03;5089510;28;20248;-60
2022/04/25 11:23:32;;;;;;;18.83;6.67;;;;;;;25.59;42.57;98611.59;5089175;28;20191;-61
2022/04/25 11:26:04;;;;;;;18.50;6.93;;;;;;;25.60;41.24;98610.66;5089086;28;20198;-61
2022/04/25 11:28:33;;;;;;;14.97;6.90;;;;;;;25.75;41.19;98607.13;5089164;28;20277;-61
2022/04/25 11:31:22;;;;;;;21.00;7.00;;;;;;;25.89;40.89;98603.66;5087158;28;20558;-61
2022/04/25 11:33:51;;;;;;;16.87;7.03;;;;;;;25.90;39.83;98603.59;5086103;28;20248;-57
2022/04/25 11:36:20;;;;;;;15.35;7.45;;;;;;;25.85;39.72;98576.66;5088663;28;20202;-57
2022/04/25 11:41:35;;;;;;;24.27;7.10;;;;;;;26.24;39.14;98605.88;5088104;28;20599;-56
2022/04/25 11:44:04;;;;;;;19.38;9.88;;;;;;;26.34;38.64;98607.00;5096372;28;20584;-59
2022/04/25 11:46:33;;;;;;;24.83;8.70;;;;;;;26.29;36.88;98577.47;5088641;28;20187;-58
2022/04/25 11:49:00;;;;;;;20.15;6.10;;;;;;;26.19;36.54;98589.53;5084192;28;20199;-56
2022/04/25 11:51:29;;;;;;;20.73;7.07;;;;;;;26.14;36.14;98594.22;5085887;28;20278;-56
2022/04/25 11:53:58;;;;;;;19.83;6.60;;;;;;;26.12;36.31;98595.22;5088935;28;20179;-56
2022/04/25 11:56:26;;;;;;;18.07;6.57;;;;;;;26.25;36.30;98586.50;5092478;28;20211;-57
2022/04/25 11:58:56;;;;;;;14.75;6.55;;;;;;;26.40;36.54;98583.88;5092234;28;20205;-57
2022/04/25 12:01:33;;;;;;;20.77;6.43;;;;;;;26.53;36.44;98577.75;5090718;28;20222;-57
2022/04/25 12:04:15;;;;;;;25.85;13.07;;;;;;;26.74;36.08;98578.16;5090932;28;20919;-57